createdAt,value
2023-11-30T00:01:14.113Z,13.53
2023-11-30T00:03:41.047Z,14.83
2023-11-30T00:06:08.488Z,13.03
2023-11-30T00:08:38.223Z,12.53
2023-11-30T00:13:37.157Z,13.33
2023-11-30T00:16:04.052Z,15.13
2023-11-30T00:18:30.722Z,13.63
2023-11-30T00:20:57.607Z,15.83
2023-11-30T00:23:24.222Z,12.87
2023-11-30T00:25:51.084Z,14.33
2023-11-30T00:28:17.933Z,15.37
2023-11-30T00:30:44.777Z,12.73
2023-11-30T00:33:11.701Z,13.80
2023-11-30T00:35:38.384Z,16.07
2023-11-30T00:38:04.980Z,14.20
2023-11-30T00:40:31.797Z,16.23
2023-11-30T00:42:58.515Z,15.47
2023-11-30T00:45:25.518Z,14.23
2023-11-30T00:47:52.364Z,12.40
2023-11-30T00:50:19.067Z,14.43
2023-11-30T00:52:45.894Z,14.10
2023-11-30T00:55:12.481Z,12.97
2023-11-30T00:57:39.694Z,14.93
2023-11-30T01:00:10.033Z,12.33
2023-11-30T01:02:37.125Z,13.80
2023-11-30T01:05:03.822Z,13.77
2023-11-30T01:07:30.422Z,15.77
2023-11-30T01:09:57.226Z,14.57
2023-11-30T01:12:23.846Z,14.37
2023-11-30T01:14:52.953Z,17.17
2023-11-30T01:17:19.669Z,14.93
2023-11-30T01:19:46.317Z,13.63
2023-11-30T01:22:13.632Z,12.17
2023-11-30T01:24:40.459Z,13.67
2023-11-30T01:27:09.676Z,13.27
2023-11-30T01:29:36.307Z,12.00
2023-11-30T01:32:03.388Z,15.70
2023-11-30T01:34:30.226Z,13.70
2023-11-30T01:36:56.874Z,13.67
2023-11-30T01:39:23.565Z,14.23
2023-11-30T01:41:50.498Z,13.57
2023-11-30T01:44:17.119Z,13.30
2023-11-30T01:46:43.892Z,13.70
2023-11-30T01:49:10.709Z,11.33
2023-11-30T01:51:37.879Z,14.10
2023-11-30T01:54:07.406Z,13.53
2023-11-30T01:56:35.947Z,13.27
2023-11-30T01:59:04.282Z,12.80
2023-11-30T02:01:31.837Z,14.80
2023-11-30T02:04:03.355Z,13.80
2023-11-30T02:06:30.016Z,14.23
2023-11-30T02:08:56.715Z,12.13
2023-11-30T02:11:23.548Z,13.03
2023-11-30T02:13:50.900Z,13.10
2023-11-30T02:16:17.740Z,12.03
2023-11-30T02:18:44.385Z,13.90
2023-11-30T02:21:11.218Z,14.77
2023-11-30T02:23:38.099Z,11.67
2023-11-30T02:26:04.903Z,15.33
2023-11-30T02:28:31.768Z,15.57
2023-11-30T02:30:58.367Z,15.60
2023-11-30T02:33:25.084Z,15.80
2023-11-30T02:35:51.993Z,12.50
2023-11-30T02:38:18.627Z,14.57
2023-11-30T02:40:46.314Z,12.63
2023-11-30T02:43:12.944Z,13.63
2023-11-30T02:45:39.744Z,16.13
2023-11-30T02:48:06.712Z,15.87
2023-11-30T02:50:33.633Z,13.87
2023-11-30T02:53:01.205Z,13.17
2023-11-30T02:55:27.863Z,14.93
2023-11-30T02:57:54.510Z,13.60
2023-11-30T03:00:21.384Z,14.37
2023-11-30T03:02:48.289Z,14.97
2023-11-30T03:05:14.958Z,15.73
2023-11-30T03:07:41.579Z,15.17
2023-11-30T03:10:08.844Z,14.20
2023-11-30T03:12:35.818Z,13.20
2023-11-30T03:15:02.651Z,12.77
2023-11-30T03:17:29.427Z,14.10
2023-11-30T03:19:56.399Z,13.87
2023-11-30T03:22:23.018Z,15.07
2023-11-30T03:24:49.920Z,14.07
2023-11-30T03:27:16.540Z,16.93
2023-11-30T03:29:43.311Z,15.23
2023-11-30T03:32:10.239Z,13.20
2023-11-30T03:34:36.927Z,14.40
2023-11-30T03:37:04.140Z,13.80
2023-11-30T03:39:30.812Z,15.83
2023-11-30T03:41:57.479Z,16.50
2023-11-30T03:44:24.338Z,16.43
2023-11-30T03:46:50.961Z,14.37
2023-11-30T03:49:17.882Z,15.10
2023-11-30T03:51:44.477Z,13.97
2023-11-30T03:54:11.127Z,15.90
2023-11-30T03:56:38.054Z,15.93
2023-11-30T03:59:04.961Z,16.93
2023-11-30T04:01:31.929Z,18.30
2023-11-30T04:03:58.651Z,17.00
2023-11-30T04:06:25.292Z,15.90
2023-11-30T04:08:52.621Z,16.50
2023-11-30T04:11:19.599Z,15.60
2023-11-30T04:13:48.718Z,18.13
2023-11-30T04:16:16.414Z,18.90
2023-11-30T04:18:43.509Z,19.10
2023-11-30T04:21:10.932Z,18.70
2023-11-30T04:23:37.778Z,16.53
2023-11-30T04:26:04.524Z,23.17
2023-11-30T04:28:31.599Z,18.57
2023-11-30T04:30:58.406Z,16.57
2023-11-30T04:33:25.472Z,17.47
2023-11-30T04:35:52.199Z,20.10
2023-11-30T04:38:19.913Z,20.33
2023-11-30T04:40:46.782Z,19.60
2023-11-30T04:43:13.770Z,22.83
2023-11-30T04:45:40.455Z,21.00
2023-11-30T04:48:07.208Z,20.77
2023-11-30T04:50:33.910Z,20.13
2023-11-30T04:53:00.840Z,27.50
2023-11-30T04:55:27.927Z,74.37
2023-11-30T04:57:55.007Z,43.03
2023-11-30T05:00:21.719Z,28.03
2023-11-30T05:02:57.170Z,23.03
2023-11-30T05:05:24.292Z,21.20
2023-11-30T05:07:50.970Z,23.00
2023-11-30T05:10:17.927Z,21.23
2023-11-30T05:12:44.789Z,21.37
2023-11-30T05:15:11.748Z,22.97
2023-11-30T05:17:38.484Z,20.43
2023-11-30T05:20:05.891Z,50.07
2023-11-30T05:22:32.656Z,57.90
2023-11-30T05:24:59.316Z,85.73
2023-11-30T05:27:26.043Z,62.67
2023-11-30T05:29:52.707Z,35.70
2023-11-30T05:32:19.478Z,25.17
2023-11-30T05:34:46.494Z,23.43
2023-11-30T05:37:13.096Z,23.83
2023-11-30T05:39:40.120Z,23.43
2023-11-30T05:42:06.814Z,22.20
2023-11-30T05:44:33.529Z,24.50
2023-11-30T05:47:00.354Z,22.87
2023-11-30T05:49:27.382Z,23.53
2023-11-30T05:51:54.315Z,22.33
2023-11-30T05:54:21.034Z,21.43
2023-11-30T05:56:47.762Z,20.37
2023-11-30T05:59:15.041Z,20.33
2023-11-30T06:01:41.931Z,21.27
2023-11-30T06:04:08.938Z,23.33
2023-11-30T06:06:35.783Z,23.70
2023-11-30T06:09:02.931Z,22.07
2023-11-30T06:11:29.854Z,21.30
2023-11-30T06:13:57.047Z,21.07
2023-11-30T06:16:24.359Z,24.37
2023-11-30T06:18:51.005Z,21.17
2023-11-30T06:21:18.070Z,19.83
2023-11-30T06:23:45.229Z,25.00
2023-11-30T06:26:12.059Z,21.53
2023-11-30T06:28:38.770Z,20.43
2023-11-30T06:31:05.686Z,22.70
2023-11-30T06:33:32.726Z,29.87
2023-11-30T06:35:59.445Z,52.27
2023-11-30T06:38:26.076Z,80.03
2023-11-30T06:40:52.984Z,81.07
2023-11-30T06:43:19.577Z,54.33
2023-11-30T06:45:46.466Z,35.97
2023-11-30T06:48:13.182Z,28.80
2023-11-30T06:50:40.116Z,22.00
2023-11-30T06:53:06.704Z,21.10
2023-11-30T06:55:33.399Z,20.50
2023-11-30T06:58:00.541Z,20.53
2023-11-30T07:00:28.282Z,22.97
2023-11-30T07:02:58.327Z,23.70
2023-11-30T07:05:25.633Z,21.57
2023-11-30T07:07:52.332Z,22.37
2023-11-30T07:10:18.951Z,23.93
2023-11-30T07:12:46.984Z,22.80
2023-11-30T07:15:13.992Z,22.67
2023-11-30T07:17:40.922Z,21.97
2023-11-30T07:20:08.743Z,21.73
2023-11-30T07:22:36.279Z,23.00
2023-11-30T07:25:03.040Z,20.50
2023-11-30T07:27:30.023Z,22.40
2023-11-30T07:29:56.852Z,21.90
2023-11-30T07:32:23.618Z,21.83
2023-11-30T07:34:50.500Z,22.33
2023-11-30T07:37:19.447Z,22.13
2023-11-30T07:39:46.462Z,45.50
2023-11-30T07:42:26.036Z,47.03
2023-11-30T07:44:59.710Z,33.77
2023-11-30T07:47:26.384Z,29.80
2023-11-30T07:49:52.983Z,25.30
2023-11-30T07:52:19.586Z,28.37
2023-11-30T07:54:46.499Z,58.90
2023-11-30T07:57:14.700Z,59.27
2023-11-30T07:59:41.285Z,51.77
2023-11-30T08:02:09.359Z,57.63
2023-11-30T08:04:39.853Z,44.23
2023-11-30T08:07:06.628Z,29.27
2023-11-30T08:09:33.606Z,25.33
2023-11-30T08:12:00.272Z,23.53
2023-11-30T08:14:26.892Z,22.13
2023-11-30T08:16:53.923Z,21.87
2023-11-30T08:19:20.573Z,26.77
2023-11-30T08:21:48.806Z,22.57
2023-11-30T08:24:15.688Z,22.50
2023-11-30T08:26:43.304Z,23.93
2023-11-30T08:31:38.635Z,24.10
2023-11-30T08:34:05.827Z,23.77
2023-11-30T08:36:32.473Z,23.67
2023-11-30T08:38:59.166Z,25.07
2023-11-30T08:41:26.130Z,30.33
2023-11-30T08:43:52.729Z,26.40
2023-11-30T08:46:19.790Z,24.57
2023-11-30T08:48:46.650Z,24.67
2023-11-30T08:51:13.440Z,25.83
2023-11-30T08:53:40.335Z,23.20
2023-11-30T08:56:07.565Z,24.20
2023-11-30T08:58:34.753Z,25.37
2023-11-30T09:01:01.341Z,25.90
2023-11-30T09:03:28.152Z,26.40
2023-11-30T09:05:54.938Z,26.80
2023-11-30T09:08:21.669Z,29.87
2023-11-30T09:10:48.873Z,27.40
2023-11-30T09:13:15.468Z,26.80
2023-11-30T09:15:42.388Z,26.20
2023-11-30T09:18:11.789Z,27.33
2023-11-30T09:20:38.842Z,29.00
2023-11-30T09:23:07.658Z,27.47
2023-11-30T09:25:34.579Z,28.63
2023-11-30T09:28:01.273Z,29.10
2023-11-30T09:30:28.025Z,30.77
2023-11-30T09:32:54.882Z,29.63
2023-11-30T09:35:21.575Z,29.00
2023-11-30T09:40:18.834Z,28.93
2023-11-30T09:42:47.183Z,32.90
2023-11-30T09:45:14.869Z,29.70
2023-11-30T09:47:41.578Z,33.40
2023-11-30T09:50:09.008Z,30.30
2023-11-30T09:52:38.573Z,30.53
2023-11-30T09:55:06.978Z,31.43
2023-11-30T09:57:33.767Z,31.27
2023-11-30T10:00:00.481Z,27.77
2023-11-30T10:02:29.622Z,26.73
2023-11-30T10:04:58.183Z,28.50
2023-11-30T10:07:25.521Z,28.07
2023-11-30T10:09:52.146Z,27.57
2023-11-30T10:12:21.569Z,25.80
2023-11-30T10:14:48.385Z,26.53
2023-11-30T10:17:15.121Z,30.60
2023-11-30T10:19:44.962Z,28.00
2023-11-30T10:22:11.621Z,27.80
2023-11-30T10:27:11.845Z,27.00
2023-11-30T10:29:43.364Z,30.57
2023-11-30T10:32:14.515Z,28.10
2023-11-30T10:34:50.737Z,27.37
2023-11-30T10:37:20.866Z,25.80
2023-11-30T10:40:02.178Z,25.70
2023-11-30T10:42:29.344Z,28.90
2023-11-30T10:44:59.775Z,24.33
2023-11-30T10:47:29.638Z,24.03
2023-11-30T10:50:02.394Z,23.80
2023-11-30T10:52:30.921Z,25.23
2023-11-30T10:55:05.501Z,21.90
2023-11-30T10:57:33.178Z,24.30
2023-11-30T11:00:00.413Z,19.67
2023-11-30T11:02:38.626Z,19.53
2023-11-30T11:05:10.007Z,19.50
2023-11-30T11:07:36.776Z,19.73
2023-11-30T11:10:07.686Z,21.83
2023-11-30T11:12:39.276Z,19.77
2023-11-30T11:15:16.938Z,19.13
2023-11-30T11:20:28.070Z,18.87
2023-11-30T11:23:11.051Z,18.30
2023-11-30T11:25:42.276Z,15.67
2023-11-30T11:28:09.250Z,16.03
2023-11-30T11:30:48.556Z,16.07
2023-11-30T11:33:22.322Z,15.53
2023-11-30T11:35:49.192Z,14.53
2023-11-30T11:38:15.857Z,14.03
2023-11-30T11:40:43.257Z,13.17
2023-11-30T11:43:10.298Z,16.80
2023-11-30T11:45:38.522Z,18.10
2023-11-30T11:48:05.547Z,17.97
2023-11-30T11:50:32.242Z,14.73
2023-11-30T11:53:04.954Z,18.67
2023-11-30T11:55:31.905Z,15.63
2023-11-30T11:57:58.958Z,12.97
2023-11-30T12:00:27.256Z,17.00
2023-11-30T12:03:08.619Z,14.73
2023-11-30T12:05:46.252Z,13.13
2023-11-30T12:08:12.885Z,11.97
2023-11-30T12:10:50.662Z,13.30
2023-11-30T12:13:17.700Z,10.87
2023-11-30T12:15:46.814Z,12.03
2023-11-30T12:18:13.937Z,14.17
2023-11-30T12:20:40.851Z,14.63
2023-11-30T12:23:07.897Z,15.53
2023-11-30T12:25:34.546Z,15.43
2023-11-30T12:28:01.588Z,22.23
2023-11-30T12:30:28.196Z,33.80
2023-11-30T12:32:55.208Z,26.47
2023-11-30T12:35:21.928Z,20.70
2023-11-30T12:37:49.908Z,16.20
2023-11-30T12:40:16.711Z,15.77
2023-11-30T12:42:45.020Z,11.33
2023-11-30T12:45:11.908Z,22.03
2023-11-30T12:47:42.774Z,19.73
2023-11-30T12:50:12.962Z,15.73
2023-11-30T12:52:39.936Z,14.33
2023-11-30T12:55:07.856Z,13.20
2023-11-30T12:57:40.221Z,13.70
2023-11-30T13:00:16.316Z,15.30
2023-11-30T13:02:47.209Z,16.73
2023-11-30T13:05:15.286Z,14.83
2023-11-30T13:07:42.366Z,13.50
2023-11-30T13:10:11.861Z,13.63
2023-11-30T13:12:39.509Z,12.50
2023-11-30T13:15:08.036Z,15.10
2023-11-30T13:17:35.024Z,13.77
2023-11-30T13:22:30.840Z,13.83
2023-11-30T13:24:59.501Z,13.73
2023-11-30T13:27:26.945Z,12.73
2023-11-30T13:29:53.664Z,12.80
2023-11-30T13:32:20.365Z,13.07
2023-11-30T13:34:46.959Z,13.47
2023-11-30T13:37:13.703Z,14.00
2023-11-30T13:39:40.569Z,11.83
2023-11-30T13:42:07.288Z,12.40
2023-11-30T13:44:33.940Z,17.50
2023-11-30T13:47:00.847Z,12.43
2023-11-30T13:49:28.214Z,12.87
2023-11-30T13:51:56.342Z,13.53
2023-11-30T13:54:24.975Z,13.60
2023-11-30T13:56:51.861Z,13.60
2023-11-30T13:59:18.462Z,15.23
2023-11-30T14:01:45.223Z,11.13
2023-11-30T14:04:12.949Z,13.37
2023-11-30T14:06:40.502Z,13.30
2023-11-30T14:11:41.995Z,14.70
2023-11-30T14:14:08.856Z,13.53
2023-11-30T14:16:35.643Z,15.17
2023-11-30T14:19:02.848Z,14.97
2023-11-30T14:21:29.517Z,17.10
2023-11-30T14:23:56.103Z,19.53
2023-11-30T14:26:22.807Z,19.30
2023-11-30T14:28:49.880Z,18.57
2023-11-30T14:31:19.852Z,21.80
2023-11-30T14:33:46.918Z,24.97
2023-11-30T14:36:14.093Z,27.90
2023-11-30T14:38:42.182Z,27.47
2023-11-30T14:41:09.248Z,28.90
2023-11-30T14:43:36.287Z,29.43
2023-11-30T14:46:03.454Z,28.23
2023-11-30T14:48:30.217Z,30.27
2023-11-30T14:53:25.747Z,31.87
2023-11-30T14:55:52.673Z,29.43
2023-11-30T14:58:21.121Z,32.27
2023-11-30T15:00:49.047Z,30.47
2023-11-30T15:03:16.963Z,33.30
2023-11-30T15:05:43.718Z,31.53
2023-11-30T15:08:10.964Z,37.50
2023-11-30T15:10:40.165Z,34.37
2023-11-30T15:13:07.145Z,35.13
2023-11-30T15:15:33.796Z,34.90
2023-11-30T15:18:00.498Z,35.80
2023-11-30T15:22:55.731Z,33.17
2023-11-30T15:25:22.418Z,42.30
2023-11-30T15:27:50.363Z,34.23
2023-11-30T15:30:17.578Z,36.07
2023-11-30T15:32:44.527Z,36.30
2023-11-30T15:35:11.614Z,36.93
2023-11-30T15:37:38.400Z,39.27
2023-11-30T15:40:10.276Z,41.33
2023-11-30T15:42:38.315Z,37.07
2023-11-30T15:45:11.711Z,41.33
2023-11-30T15:47:40.391Z,39.80
2023-11-30T15:50:07.865Z,43.77
2023-11-30T15:52:34.650Z,42.67
2023-11-30T15:55:01.334Z,40.57
2023-11-30T15:57:28.207Z,38.57
2023-11-30T15:59:54.940Z,42.63
2023-11-30T16:02:22.006Z,40.47
2023-11-30T16:04:48.716Z,43.03
2023-11-30T16:07:15.442Z,38.13
2023-11-30T16:09:42.099Z,36.07
2023-11-30T16:12:09.253Z,43.03
2023-11-30T16:14:36.222Z,40.33
2023-11-30T16:17:03.308Z,43.63
2023-11-30T16:19:30.216Z,36.90
2023-11-30T16:21:58.574Z,40.70
2023-11-30T16:24:25.452Z,40.67
2023-11-30T16:26:55.943Z,36.53
2023-11-30T16:29:23.526Z,37.83
2023-11-30T16:31:52.458Z,51.53
2023-11-30T16:34:20.890Z,50.07
2023-11-30T16:36:48.688Z,39.77
2023-11-30T16:39:15.921Z,36.00
2023-11-30T16:41:43.790Z,38.83
2023-11-30T16:44:10.700Z,39.10
2023-11-30T16:46:37.620Z,36.77
2023-11-30T16:49:04.480Z,36.00
2023-11-30T16:51:31.172Z,38.27
2023-11-30T16:53:57.977Z,33.87
2023-11-30T16:56:26.124Z,38.53
2023-11-30T16:58:53.796Z,37.93
2023-11-30T17:01:21.409Z,40.80
2023-11-30T17:03:48.901Z,40.27
2023-11-30T17:06:15.976Z,39.20
2023-11-30T17:08:43.295Z,42.33
2023-11-30T17:11:10.003Z,46.13
2023-11-30T17:13:36.624Z,42.13
2023-11-30T17:16:06.341Z,45.10
2023-11-30T17:18:35.196Z,49.60
2023-11-30T17:21:02.149Z,50.67
2023-11-30T17:23:28.751Z,49.27
2023-11-30T17:25:55.349Z,49.23
2023-11-30T17:28:21.975Z,56.33
2023-11-30T17:30:48.679Z,53.33
2023-11-30T17:33:15.650Z,48.77
2023-11-30T17:35:42.477Z,49.37
2023-11-30T17:38:09.264Z,49.50
2023-11-30T17:40:35.933Z,53.73
2023-11-30T17:43:02.557Z,57.77
2023-11-30T17:45:29.958Z,56.07
2023-11-30T17:47:57.110Z,55.83
2023-11-30T17:50:24.566Z,53.63
2023-11-30T17:52:52.708Z,53.27
2023-11-30T17:55:20.446Z,53.47
2023-11-30T17:57:47.186Z,79.03
2023-11-30T18:00:14.397Z,59.53
2023-11-30T18:02:41.135Z,52.93
2023-11-30T18:05:08.178Z,53.53
2023-11-30T18:07:34.818Z,53.10
2023-11-30T18:10:01.983Z,52.60
2023-11-30T18:12:28.962Z,57.17
2023-11-30T18:14:55.586Z,50.47
2023-11-30T18:17:22.206Z,53.57
2023-11-30T18:19:48.928Z,53.17
2023-11-30T18:22:15.520Z,51.43
2023-11-30T18:24:42.631Z,48.70
2023-11-30T18:27:09.386Z,45.53
2023-11-30T18:29:36.371Z,41.87
2023-11-30T18:32:04.206Z,45.10
2023-11-30T18:34:30.981Z,42.93
2023-11-30T18:36:57.894Z,48.07
2023-11-30T18:39:24.998Z,40.50
2023-11-30T18:41:52.641Z,42.37
2023-11-30T18:44:19.323Z,43.27
2023-11-30T18:46:46.022Z,38.03
2023-11-30T18:49:12.775Z,39.87
2023-11-30T18:51:39.787Z,40.87
2023-11-30T18:54:06.585Z,41.20
2023-11-30T18:56:33.325Z,39.93
2023-11-30T18:59:00.666Z,40.63
2023-11-30T19:01:28.509Z,42.30
2023-11-30T19:06:25.992Z,39.83
2023-11-30T19:08:53.821Z,38.57
2023-11-30T19:11:23.099Z,45.97
2023-11-30T19:16:22.113Z,38.60
2023-11-30T19:18:50.437Z,37.57
2023-11-30T19:21:18.522Z,38.00
2023-11-30T19:23:46.740Z,38.20
2023-11-30T19:26:14.498Z,37.47
2023-11-30T19:28:41.453Z,38.27
2023-11-30T19:31:08.554Z,35.40
2023-11-30T19:33:35.633Z,37.00
2023-11-30T19:36:02.303Z,40.50
2023-11-30T19:38:29.690Z,40.90
2023-11-30T19:40:57.498Z,40.27
2023-11-30T19:43:27.741Z,42.27
2023-11-30T19:45:55.469Z,47.53
2023-11-30T19:48:22.845Z,42.10
2023-11-30T19:50:49.530Z,44.27
2023-11-30T19:53:16.877Z,40.00
2023-11-30T19:55:48.022Z,43.73
2023-11-30T19:58:18.241Z,45.37
2023-11-30T20:00:45.571Z,41.87
2023-11-30T20:03:12.547Z,42.67
2023-11-30T20:08:07.921Z,42.10
2023-11-30T20:10:34.680Z,41.27
2023-11-30T20:13:02.355Z,44.77
2023-11-30T20:15:31.115Z,38.97
2023-11-30T20:17:58.183Z,44.80
2023-11-30T20:20:25.353Z,42.43
2023-11-30T20:22:51.952Z,39.77
2023-11-30T20:27:47.959Z,40.87
2023-11-30T20:30:14.839Z,38.57
2023-11-30T20:35:11.862Z,42.93
2023-11-30T20:37:38.502Z,42.13
2023-11-30T20:40:05.694Z,45.83
2023-11-30T20:42:32.620Z,41.40
2023-11-30T20:44:59.854Z,41.97
2023-11-30T20:47:26.491Z,45.87
2023-11-30T20:49:53.443Z,46.73
2023-11-30T20:52:20.455Z,50.53
2023-11-30T20:54:47.205Z,45.37
2023-11-30T20:57:16.737Z,44.83
2023-11-30T20:59:45.626Z,49.83
2023-11-30T21:02:14.585Z,48.83
2023-11-30T21:04:41.337Z,49.10
2023-11-30T21:07:08.533Z,49.63
2023-11-30T21:09:36.808Z,51.20
2023-11-30T21:12:03.892Z,45.00
2023-11-30T21:14:30.820Z,51.73
2023-11-30T21:16:57.474Z,47.83
2023-11-30T21:19:24.515Z,46.67
2023-11-30T21:21:51.157Z,49.73
2023-11-30T21:24:18.003Z,48.53
2023-11-30T21:26:44.906Z,48.97
2023-11-30T21:29:11.905Z,47.77
2023-11-30T21:31:41.574Z,47.13
2023-11-30T21:34:08.264Z,43.50
2023-11-30T21:36:35.540Z,44.73
2023-11-30T21:39:02.163Z,42.90
2023-11-30T21:41:29.047Z,43.03
2023-11-30T21:43:55.888Z,46.07
2023-11-30T21:46:22.801Z,48.33
2023-11-30T21:48:49.572Z,44.23
2023-11-30T21:51:16.250Z,47.37
2023-11-30T21:53:42.832Z,49.90
2023-11-30T21:58:40.331Z,50.83
2023-11-30T22:01:11.531Z,48.57
2023-11-30T22:03:39.247Z,47.97
2023-11-30T22:06:06.551Z,52.70
2023-11-30T22:08:33.909Z,52.37
2023-11-30T22:11:00.906Z,46.30
2023-11-30T22:13:28.382Z,47.07
2023-11-30T22:16:00.090Z,46.87
2023-11-30T22:18:37.784Z,48.27
2023-11-30T22:21:08.098Z,49.67
2023-11-30T22:23:35.872Z,48.40
2023-11-30T22:26:04.549Z,48.63
2023-11-30T22:28:32.547Z,39.77
2023-11-30T22:31:00.383Z,46.37
2023-11-30T22:33:28.382Z,47.93
2023-11-30T22:35:57.923Z,52.60
2023-11-30T22:38:26.933Z,48.03
2023-11-30T22:40:54.970Z,48.63
2023-11-30T22:43:24.234Z,51.10
2023-11-30T22:45:51.198Z,46.03
2023-11-30T22:48:18.616Z,47.27
2023-11-30T22:50:45.558Z,47.27
2023-11-30T22:53:13.948Z,49.77
2023-11-30T22:55:41.059Z,51.57
2023-11-30T22:58:08.128Z,50.93
2023-11-30T23:00:35.966Z,47.53
2023-11-30T23:03:04.128Z,48.17
2023-11-30T23:05:31.841Z,50.90
2023-11-30T23:07:59.193Z,48.00
2023-11-30T23:10:26.172Z,49.77
2023-11-30T23:12:54.254Z,44.43
2023-11-30T23:15:21.227Z,47.57
2023-11-30T23:17:48.114Z,46.93
2023-11-30T23:20:15.150Z,43.90
2023-11-30T23:22:42.022Z,45.17
2023-11-30T23:25:09.947Z,46.20
2023-11-30T23:27:37.428Z,41.50
2023-11-30T23:30:05.195Z,42.87
2023-11-30T23:32:32.131Z,46.10
2023-11-30T23:34:59.041Z,47.90
2023-11-30T23:37:26.398Z,43.40
2023-11-30T23:39:53.277Z,49.77
2023-11-30T23:42:20.315Z,42.70
2023-11-30T23:44:47.890Z,46.40
2023-11-30T23:47:15.372Z,44.23
2023-11-30T23:49:42.071Z,41.70
2023-11-30T23:52:08.750Z,42.47
2023-11-30T23:54:35.822Z,43.37
2023-11-30T23:57:02.511Z,45.47
2023-11-30T23:59:29.397Z,44.73
